createdAt,value
2019-02-25T09:34:01.072Z,99370.01
2019-02-25T09:36:32.319Z,99374.19
2019-02-25T09:39:04.424Z,99371.97
2019-02-25T09:41:36.003Z,99372.80
2019-02-25T09:44:07.205Z,99371.16
2019-02-25T09:46:39.387Z,99371.99
2019-02-25T09:49:10.751Z,99366.72
2019-02-25T09:51:41.943Z,99355.32
2019-02-25T09:54:13.243Z,99345.83
2019-02-25T09:56:44.421Z,99340.02
2019-02-25T09:59:15.636Z,99344.33
2019-02-25T10:01:46.805Z,99342.70
2019-02-25T10:04:18.195Z,99344.52
2019-02-25T10:06:49.400Z,99332.30
2019-02-25T10:09:29.485Z,99328.09
2019-02-25T10:11:53.578Z,99322.19
2019-02-25T10:14:24.798Z,99317.14
2019-02-25T10:16:56.020Z,99314.40
2019-02-25T10:19:27.311Z,99313.56
2019-02-25T10:21:58.510Z,99307.45
2019-02-25T10:24:29.737Z,99299.66
2019-02-25T10:27:01.002Z,99299.25
2019-02-25T10:29:32.332Z,99296.63
2019-02-25T10:32:04.872Z,99292.52
2019-02-25T10:34:36.575Z,99281.12
2019-02-25T10:37:08.958Z,99281.26
2019-02-25T10:39:41.285Z,99271.34
2019-02-25T10:42:13.647Z,99278.42
2019-02-25T10:44:44.919Z,99275.27
2019-02-25T10:47:17.817Z,99273.80
2019-02-25T10:49:49.012Z,99276.22
2019-02-25T10:52:20.212Z,99273.80
2019-02-25T10:54:52.447Z,99271.69
2019-02-25T10:57:26.607Z,99264.42
2019-02-25T10:59:57.325Z,99264.30
2019-02-25T11:02:28.537Z,99265.79
2019-02-25T11:05:00.348Z,99268.13
2019-02-25T11:07:32.833Z,99263.78
2019-02-25T11:10:08.249Z,99258.02
2019-02-25T11:12:40.522Z,99253.16
2019-02-25T11:15:13.834Z,99258.55
2019-02-25T11:17:45.850Z,99255.67
2019-02-25T11:20:18.293Z,99254.04
2019-02-25T11:22:49.491Z,99246.26
2019-02-25T11:25:21.527Z,99245.99
2019-02-25T11:27:53.613Z,99240.69
2019-02-25T11:30:24.859Z,99233.83
2019-02-25T11:32:57.842Z,99235.30
2019-02-25T11:35:28.952Z,99234.02
2019-02-25T11:38:01.682Z,99223.03
2019-02-25T11:40:34.101Z,99219.16
2019-02-25T11:43:05.870Z,99213.84
2019-02-25T11:45:37.060Z,99211.97
2019-02-25T11:48:08.245Z,99210.55
2019-02-25T11:50:39.442Z,99199.89
2019-02-25T11:53:10.626Z,99204.38
2019-02-25T11:55:41.832Z,99192.17
2019-02-25T11:58:13.054Z,99190.66
2019-02-25T12:00:44.256Z,99187.67
2019-02-25T12:03:15.439Z,99184.87
2019-02-25T12:05:46.721Z,99173.70
2019-02-25T12:08:17.949Z,99173.90
2019-02-25T12:10:49.166Z,99175.33
2019-02-25T12:13:20.359Z,99171.75
2019-02-25T12:15:51.563Z,99167.61
2019-02-25T12:18:22.741Z,99156.89
2019-02-25T12:20:53.931Z,99154.00
2019-02-25T12:23:25.109Z,99151.85
2019-02-25T12:25:56.355Z,99153.22
2019-02-25T12:28:27.571Z,99151.54
2019-02-25T12:30:59.810Z,99143.79
2019-02-25T12:33:30.994Z,99137.70
2019-02-25T12:36:02.188Z,99136.64
2019-02-25T12:38:33.385Z,99131.53
2019-02-25T12:41:04.691Z,99131.73
2019-02-25T12:43:35.821Z,99127.35
2019-02-25T12:46:06.989Z,99125.52
2019-02-25T12:48:38.207Z,99119.95
2019-02-25T12:51:09.472Z,99103.24
2019-02-25T12:53:40.653Z,99100.14
2019-02-25T12:56:12.873Z,99100.52
2019-02-25T12:58:44.104Z,99093.87
2019-02-25T13:01:15.353Z,99092.59
2019-02-25T13:03:47.585Z,99085.89
2019-02-25T13:06:19.799Z,99080.91
2019-02-25T13:08:50.980Z,99075.72
2019-02-25T13:11:22.217Z,99065.44
2019-02-25T13:13:53.578Z,99075.00
2019-02-25T13:16:24.751Z,99057.08
2019-02-25T13:18:55.923Z,99051.36
2019-02-25T13:21:27.140Z,99055.19
2019-02-25T13:23:59.432Z,99051.91
2019-02-25T13:26:31.667Z,99046.33
2019-02-25T13:29:04.246Z,99046.17
2019-02-25T13:31:35.458Z,99038.41
2019-02-25T13:34:06.670Z,99044.43
2019-02-25T13:36:37.969Z,99041.30
2019-02-25T13:39:09.148Z,99033.66
2019-02-25T13:41:40.571Z,99036.28
2019-02-25T13:44:11.771Z,99034.45
2019-02-25T13:46:42.993Z,99030.03
2019-02-25T13:49:14.243Z,99024.27
2019-02-25T13:51:45.464Z,99020.89
2019-02-25T13:54:16.688Z,99022.97
2019-02-25T13:56:47.999Z,99013.48
2019-02-25T13:59:19.360Z,99012.97
2019-02-25T14:01:50.668Z,98994.06
2019-02-25T14:04:21.977Z,98998.25
2019-02-25T14:06:53.952Z,98990.09
2019-02-25T14:09:25.115Z,98991.47
2019-02-25T14:11:56.448Z,98984.45
2019-02-25T14:14:27.704Z,98992.69
2019-02-25T14:16:58.921Z,98981.82
2019-02-25T14:19:30.133Z,98978.50
2019-02-25T14:22:01.382Z,98984.61
2019-02-25T14:24:32.776Z,98975.98
2019-02-25T14:27:04.072Z,98976.19
2019-02-25T14:29:35.304Z,98980.23
2019-02-25T14:32:06.746Z,98971.02
2019-02-25T14:34:38.591Z,98969.88
2019-02-25T14:37:11.017Z,98971.64
2019-02-25T14:39:43.292Z,98966.34
2019-02-25T14:42:16.533Z,98965.84
2019-02-25T14:44:50.015Z,98969.05
2019-02-25T14:47:23.407Z,98966.43
2019-02-25T14:49:53.468Z,98959.72
2019-02-25T14:52:26.715Z,98963.72
2019-02-25T14:54:57.750Z,98959.13
2019-02-25T14:57:30.738Z,98955.02
2019-02-25T15:00:01.923Z,98949.37
2019-02-25T15:02:33.244Z,98945.56
2019-02-25T15:05:05.666Z,98942.21
2019-02-25T15:07:36.890Z,98942.37
2019-02-25T15:10:10.997Z,98940.54
2019-02-25T15:12:42.402Z,98940.98
2019-02-25T15:15:15.611Z,98936.58
2019-02-25T15:17:48.226Z,98937.17
2019-02-25T15:20:22.819Z,98921.77
2019-02-25T15:22:53.960Z,98924.98
2019-02-25T15:25:25.154Z,98921.32
2019-02-25T15:27:56.361Z,98924.06
2019-02-25T15:30:30.768Z,98928.08
2019-02-25T15:33:01.595Z,98920.16
2019-02-25T15:35:35.134Z,98929.84
2019-02-25T15:38:05.876Z,98932.44
2019-02-25T15:40:37.125Z,98927.42
2019-02-25T15:43:13.242Z,98926.52
2019-02-25T15:45:43.761Z,98935.80
2019-02-25T15:48:17.534Z,98922.83
2019-02-25T15:50:53.038Z,98911.70
2019-02-25T15:53:24.268Z,98924.98
2019-02-25T15:55:59.243Z,98925.14
2019-02-25T15:58:28.452Z,98914.16
2019-02-25T16:00:59.758Z,98912.17
2019-02-25T16:03:32.200Z,98916.91
2019-02-25T16:06:05.797Z,98914.60
2019-02-25T16:08:37.266Z,98914.83
2019-02-25T16:11:08.592Z,98911.86
2019-02-25T16:13:39.823Z,98913.54
2019-02-25T16:16:11.013Z,98896.77
2019-02-25T16:18:44.033Z,98905.02
2019-02-25T16:21:15.350Z,98899.66
2019-02-25T16:23:46.607Z,98904.55
2019-02-25T16:26:19.598Z,98897.16
2019-02-25T16:28:53.183Z,98896.62
2019-02-25T16:31:26.522Z,98895.81
2019-02-25T16:33:57.966Z,98892.08
2019-02-25T16:36:31.101Z,98891.84
2019-02-25T16:39:05.401Z,98886.50
2019-02-25T16:41:40.990Z,98883.68
2019-02-25T16:44:12.122Z,98891.84
2019-02-25T16:46:44.461Z,98875.34
2019-02-25T16:49:16.256Z,98868.09
2019-02-25T16:51:47.477Z,98876.59
2019-02-25T16:54:20.626Z,98874.06
2019-02-25T16:56:51.729Z,98876.20
2019-02-25T16:59:24.944Z,98877.30
2019-02-25T17:01:58.065Z,98874.52
2019-02-25T17:04:31.833Z,98875.02
2019-02-25T17:07:03.108Z,98875.20
2019-02-25T17:09:37.055Z,98873.64
2019-02-25T17:12:08.888Z,98867.52
2019-02-25T17:14:40.959Z,98860.56
2019-02-25T17:17:13.241Z,98866.98
2019-02-25T17:19:44.481Z,98857.16
2019-02-25T17:22:15.668Z,98856.41
2019-02-25T17:24:46.925Z,98847.68
2019-02-25T17:27:18.167Z,98844.14
2019-02-25T17:29:50.850Z,98836.70
2019-02-25T17:32:25.366Z,98834.97
2019-02-25T17:34:58.255Z,98834.36
2019-02-25T17:37:31.352Z,98822.44
2019-02-25T17:40:04.410Z,98832.88
2019-02-25T17:42:35.348Z,98829.21
2019-02-25T17:45:10.068Z,98825.30
2019-02-25T17:47:41.922Z,98822.89
2019-02-25T17:50:16.687Z,98825.22
2019-02-25T17:52:47.943Z,98815.06
2019-02-25T17:55:21.445Z,98817.47
2019-02-25T17:57:54.332Z,98813.77
2019-02-25T18:00:35.015Z,98817.30
2019-02-25T18:03:07.111Z,98816.75
2019-02-25T18:05:40.557Z,98820.37
2019-02-25T18:08:13.311Z,98818.63
2019-02-25T18:10:45.572Z,98811.02
2019-02-25T18:13:17.730Z,98827.42
2019-02-25T18:15:51.356Z,98823.03
2019-02-25T18:18:24.410Z,98815.48
2019-02-25T18:20:55.163Z,98820.08
2019-02-25T18:23:26.337Z,98829.52
2019-02-25T18:25:58.815Z,98824.34
2019-02-25T18:28:30.109Z,98835.63
2019-02-25T18:31:01.771Z,98819.25
2019-02-25T18:33:34.672Z,98824.30
2019-02-25T18:36:07.128Z,98814.59
2019-02-25T18:38:39.023Z,98824.85
2019-02-25T18:41:10.235Z,98821.77
2019-02-25T18:43:42.937Z,98817.81
2019-02-25T18:46:14.329Z,98810.20
2019-02-25T18:48:46.752Z,98815.23
2019-02-25T18:51:18.546Z,98818.33
2019-02-25T18:53:49.862Z,98821.45
2019-02-25T18:56:22.705Z,98816.44
2019-02-25T18:59:07.118Z,98821.63
2019-02-25T19:01:26.858Z,98804.05
2019-02-25T19:03:59.065Z,98818.19
2019-02-25T19:06:30.735Z,98817.30
2019-02-25T19:09:03.679Z,98819.42
2019-02-25T19:11:36.522Z,98811.83
2019-02-25T19:14:08.740Z,98821.61
2019-02-25T19:16:40.535Z,98814.19
2019-02-25T19:19:14.330Z,98815.21
2019-02-25T19:21:47.781Z,98803.47
2019-02-25T19:24:18.779Z,98808.06
2019-02-25T19:26:50.346Z,98805.48
2019-02-25T19:29:23.649Z,98812.03
2019-02-25T19:31:56.445Z,98811.59
2019-02-25T19:34:28.371Z,98819.98
2019-02-25T19:37:02.242Z,98817.76
2019-02-25T19:39:33.633Z,98813.30
2019-02-25T19:42:05.648Z,98812.67
2019-02-25T19:44:38.155Z,98810.55
2019-02-25T19:47:11.589Z,98806.59
2019-02-25T19:49:43.638Z,98809.19
2019-02-25T19:52:16.806Z,98815.73
2019-02-25T19:54:48.879Z,98821.38
2019-02-25T19:57:23.232Z,98817.41
2019-02-25T19:59:56.159Z,98818.47
2019-02-25T20:02:27.698Z,98818.47
2019-02-25T20:04:59.703Z,98817.26
2019-02-25T20:07:32.944Z,98817.73
2019-02-25T20:10:05.418Z,98825.33
2019-02-25T20:12:40.103Z,98821.69
2019-02-25T20:15:18.292Z,98821.38
2019-02-25T20:17:50.669Z,98816.67
2019-02-25T20:20:22.328Z,98814.28
2019-02-25T20:22:53.525Z,98816.67
2019-02-25T20:25:26.588Z,98821.38
2019-02-25T20:27:59.834Z,98811.27
2019-02-25T20:30:30.692Z,98811.57
2019-02-25T20:33:03.845Z,98814.08
2019-02-25T20:35:34.770Z,98797.47
2019-02-25T20:38:06.005Z,98801.12
2019-02-25T20:40:37.162Z,98794.73
2019-02-25T20:43:08.358Z,98788.78
2019-02-25T20:45:39.823Z,98801.27
2019-02-25T20:48:11.099Z,98799.00
2019-02-25T20:50:42.288Z,98804.95
2019-02-25T20:53:14.482Z,98791.52
2019-02-25T20:55:45.633Z,98789.09
2019-02-25T20:58:18.628Z,98790.42
2019-02-25T21:00:50.909Z,98779.46
2019-02-25T21:03:24.879Z,98781.84
2019-02-25T21:05:55.896Z,98785.41
2019-02-25T21:08:28.177Z,98785.72
2019-02-25T21:11:01.531Z,98792.27
2019-02-25T21:13:33.559Z,98775.50
2019-02-25T21:16:07.487Z,98789.59
2019-02-25T21:18:38.113Z,98786.93
2019-02-25T21:21:11.296Z,98793.47
2019-02-25T21:23:42.204Z,98792.41
2019-02-25T21:26:13.383Z,98786.02
2019-02-25T21:28:44.571Z,98789.05
2019-02-25T21:31:17.363Z,98792.25
2019-02-25T21:33:50.089Z,98800.70
2019-02-25T21:36:21.560Z,98791.80
2019-02-25T21:38:53.962Z,98788.45
2019-02-25T21:41:25.643Z,98797.96
2019-02-25T21:43:59.106Z,98790.72
2019-02-25T21:46:31.599Z,98789.34
2019-02-25T21:49:04.041Z,98789.66
2019-02-25T21:51:36.878Z,98784.25
2019-02-25T21:54:08.994Z,98790.04
2019-02-25T21:56:40.184Z,98786.92
2019-02-25T21:59:13.163Z,98779.00
2019-02-25T22:01:45.248Z,98776.58
2019-02-25T22:04:18.582Z,98773.83
2019-02-25T22:06:51.276Z,98769.27
2019-02-25T22:09:36.061Z,98777.56
2019-02-25T22:11:56.297Z,98778.53
2019-02-25T22:14:27.594Z,98781.14
2019-02-25T22:16:59.396Z,98775.72
2019-02-25T22:19:32.468Z,98775.67
2019-02-25T22:22:05.308Z,98781.14
2019-02-25T22:24:38.883Z,98768.19
2019-02-25T22:27:11.833Z,98763.77
2019-02-25T22:29:43.539Z,98769.79
2019-02-25T22:32:15.805Z,98771.22
2019-02-25T22:34:46.913Z,98770.93
2019-02-25T22:37:19.927Z,98768.97
2019-02-25T22:39:52.619Z,98774.30
2019-02-25T22:42:25.263Z,98766.14
2019-02-25T22:44:56.440Z,98773.67
2019-02-25T22:47:27.517Z,98767.59
2019-02-25T22:49:58.625Z,98765.75
2019-02-25T22:52:31.504Z,98762.78
2019-02-25T22:55:05.918Z,98753.27
2019-02-25T22:57:35.212Z,98752.80
2019-02-25T23:00:30.161Z,98754.33
2019-02-25T23:03:03.047Z,98758.36
2019-02-25T23:05:34.243Z,98762.12
2019-02-25T23:08:09.024Z,98759.81
2019-02-25T23:10:41.793Z,98760.73
2019-02-25T23:13:10.850Z,98745.81
2019-02-25T23:15:44.717Z,98750.20
2019-02-25T23:18:16.857Z,98748.09
2019-02-25T23:20:48.240Z,98735.93
2019-02-25T23:23:21.283Z,98735.30
2019-02-25T23:25:54.129Z,98735.61
2019-02-25T23:28:26.156Z,98718.13
2019-02-25T23:30:57.880Z,98733.62
2019-02-25T23:33:31.934Z,98721.61
2019-02-25T23:36:03.017Z,98717.50
2019-02-25T23:38:34.053Z,98714.52
2019-02-25T23:41:05.875Z,98710.34
2019-02-25T23:43:39.821Z,98722.14
2019-02-25T23:46:11.713Z,98718.11
2019-02-25T23:48:44.611Z,98709.34
2019-02-25T23:51:17.258Z,98711.27
2019-02-25T23:53:49.188Z,98698.48
2019-02-25T23:56:22.809Z,98693.70
2019-02-25T23:58:54.103Z,98694.16
